Time;durP1;ratioP1;P1;durP2;ratioP2;P2;SDS_P1;SDS_P2;PMS_P1;PMS_P2;Temp;Humidity;BMP_temperature;BMP_pressure;BME280_temperature;BME280_humidity;BME280_pressure;Samples;Min_cycle;Max_cycle;Signal;HPM_P1;HPM_P2
2023/04/07 00:00:31;;;;;;;14.80;10.30;;;;;;;1.69;89.36;100951.80;107758;1250;109442;-71
2023/04/07 00:03:16;;;;;;;14.80;10.30;;;;;;;1.71;89.05;100949.58;107637;1252;108027;-72
2023/04/07 00:05:45;;;;;;;12.90;9.80;;;;;;;1.73;88.50;100947.71;107602;1251;97908;-73
2023/04/07 00:08:13;;;;;;;13.20;10.50;;;;;;;1.70;88.23;100950.52;107773;1256;97935;-71
2023/04/07 00:10:42;;;;;;;16.40;10.70;;;;;;;1.70;88.76;100954.76;107617;1250;112207;-70
2023/04/07 00:13:10;;;;;;;17.00;9.90;;;;;;;1.71;89.03;100955.05;107589;1250;109871;-71
2023/04/07 00:15:39;;;;;;;12.10;8.90;;;;;;;1.75;89.15;100952.94;107504;1250;107989;-71
2023/04/07 00:18:08;;;;;;;13.40;9.70;;;;;;;1.80;89.19;100951.47;107750;1249;97813;-71
2023/04/07 00:20:37;;;;;;;13.80;10.10;;;;;;;1.82;88.74;100950.98;107713;1248;98320;-69
2023/04/07 00:23:06;;;;;;;16.80;10.30;;;;;;;1.86;88.97;100949.92;107811;1250;111705;-72
2023/04/07 00:25:34;;;;;;;12.70;9.20;;;;;;;1.84;88.88;100950.02;107533;1250;109523;-72
2023/04/07 00:28:03;;;;;;;12.60;8.30;;;;;;;1.80;88.91;100948.45;107625;1256;108933;-71
2023/04/07 00:30:31;;;;;;;15.50;9.40;;;;;;;1.76;88.71;100947.95;107533;1251;97813;-73
2023/04/07 00:32:59;;;;;;;12.80;9.00;;;;;;;1.74;88.64;100944.14;107754;1251;98356;-71
2023/04/07 00:35:28;;;;;;;15.40;9.30;;;;;;;1.71;87.96;100946.95;107532;1251;110949;-73
2023/04/07 00:37:57;;;;;;;14.70;9.50;;;;;;;1.65;87.61;100946.17;107554;1250;109287;-70
2023/04/07 00:40:25;;;;;;;14.10;10.70;;;;;;;1.58;87.23;100952.67;107541;1250;107935;-72
2023/04/07 00:42:54;;;;;;;14.80;10.80;;;;;;;1.54;87.53;100950.58;107570;1250;97809;-68
2023/04/07 00:45:23;;;;;;;15.00;9.90;;;;;;;1.51;87.51;100953.90;107688;1251;98348;-70
2023/04/07 00:47:52;;;;;;;12.90;9.70;;;;;;;1.48;87.64;100957.03;107679;1250;111889;-69
2023/04/07 00:50:21;;;;;;;16.60;10.80;;;;;;;1.41;87.52;100953.66;107626;1250;109234;-70
2023/04/07 00:52:50;;;;;;;15.40;11.10;;;;;;;1.34;87.53;100950.98;107552;1250;107651;-70
2023/04/07 00:55:18;;;;;;;17.00;12.20;;;;;;;1.26;87.33;100953.48;107547;1250;97811;-70
2023/04/07 00:57:50;;;;;;;15.10;11.00;;;;;;;1.19;86.97;100951.70;107571;1250;98373;-67
2023/04/07 01:00:19;;;;;;;15.20;11.20;;;;;;;1.11;86.64;100951.73;107625;1250;111319;-67
2023/04/07 01:02:58;;;;;;;18.20;10.90;;;;;;;1.04;86.54;100953.61;107685;1251;109832;-67
2023/04/07 01:05:27;;;;;;;16.00;11.60;;;;;;;0.99;86.30;100956.88;107717;1251;108613;-68
2023/04/07 01:08:12;;;;;;;15.70;11.50;;;;;;;0.92;86.15;100960.83;107648;1250;97834;-70
2023/04/07 01:10:59;;;;;;;15.50;11.10;;;;;;;0.87;86.39;100961.63;107783;1251;97710;-68
2023/04/07 01:13:37;;;;;;;16.70;12.00;;;;;;;0.82;86.46;100963.44;107721;1249;111852;-70
2023/04/07 01:16:21;;;;;;;12.10;9.90;;;;;;;0.78;86.51;100968.89;107794;1250;108698;-70
2023/04/07 01:18:56;;;;;;;14.40;11.20;;;;;;;0.75;87.06;100969.55;107693;1251;108131;-69
2023/04/07 01:21:27;;;;;;;14.20;10.80;;;;;;;0.72;87.15;100966.00;107667;1250;97834;-69
2023/04/07 01:24:20;;;;;;;15.70;10.70;;;;;;;0.68;87.56;100964.40;107769;1250;97814;-68
2023/04/07 01:26:50;;;;;;;16.40;11.90;;;;;;;0.61;87.64;100961.67;107672;1251;113092;-69
2023/04/07 01:29:39;;;;;;;18.10;12.50;;;;;;;0.60;87.75;100963.52;107727;1250;108983;-69
2023/04/07 01:32:10;;;;;;;18.20;13.30;;;;;;;0.60;87.56;100962.64;107598;1251;107132;-69
2023/04/07 01:34:40;;;;;;;16.30;11.80;;;;;;;0.61;87.79;100961.89;107633;1251;97804;-68
2023/04/07 01:37:10;;;;;;;15.30;11.80;;;;;;;0.64;88.03;100967.74;107571;1250;98339;-69
2023/04/07 01:39:39;;;;;;;14.70;11.20;;;;;;;0.67;88.28;100966.20;107559;1251;111868;-68
2023/04/07 01:42:08;;;;;;;17.50;12.70;;;;;;;0.72;88.72;100965.28;107514;1253;109692;-70
2023/04/07 01:44:37;;;;;;;26.80;16.50;;;;;;;0.76;88.95;100964.08;107549;1250;108566;-71
2023/04/07 01:47:07;;;;;;;27.50;14.30;;;;;;;0.80;89.34;100965.30;107587;1254;97951;-69
2023/04/07 01:49:37;;;;;;;22.80;14.30;;;;;;;0.85;89.56;100968.45;107622;1253;97748;-70
2023/04/07 01:52:07;;;;;;;25.10;14.80;;;;;;;0.88;89.46;100964.92;107637;1255;111019;-69
2023/04/07 01:54:36;;;;;;;19.80;13.30;;;;;;;0.91;89.28;100964.81;107605;1253;109137;-67
2023/04/07 01:57:04;;;;;;;19.40;13.10;;;;;;;0.94;89.27;100969.23;107597;1253;106973;-67
2023/04/07 01:59:32;;;;;;;15.80;11.40;;;;;;;1.00;89.31;100962.80;107395;1258;97752;-68
2023/04/07 02:02:01;;;;;;;18.10;12.20;;;;;;;1.08;89.63;100965.07;107601;1253;97761;-68
2023/04/07 02:04:37;;;;;;;17.50;11.10;;;;;;;1.14;89.55;100962.51;107463;1253;112643;-67
2023/04/07 02:07:20;;;;;;;13.30;10.40;;;;;;;1.18;89.43;100964.10;107541;1253;109050;-69
2023/04/07 02:09:52;;;;;;;13.20;9.60;;;;;;;1.21;89.42;100965.38;107539;1253;107311;-69
2023/04/07 02:12:25;;;;;;;14.50;9.40;;;;;;;1.26;90.06;100963.19;107588;1253;97835;-69
2023/04/07 02:15:03;;;;;;;12.70;9.60;;;;;;;1.34;90.61;100964.09;107531;1253;97729;-69
2023/04/07 02:17:34;;;;;;;13.90;9.40;;;;;;;1.40;90.41;100965.73;107521;1253;112175;-68
2023/04/07 02:20:07;;;;;;;14.80;9.50;;;;;;;1.46;90.14;100967.59;107628;1252;109297;-68
2023/04/07 02:22:38;;;;;;;22.20;14.80;;;;;;;1.45;88.96;100968.16;107653;1253;106805;-68
2023/04/07 02:25:22;;;;;;;19.50;13.10;;;;;;;1.40;88.68;100969.98;107602;1256;97838;-69
2023/04/07 02:27:50;;;;;;;16.60;10.80;;;;;;;1.43;89.07;100974.05;107615;1253;97807;-69
2023/04/07 02:30:19;;;;;;;14.70;10.50;;;;;;;1.50;89.54;100971.98;107616;1254;111635;-70
2023/04/07 02:32:47;;;;;;;13.30;9.60;;;;;;;1.50;89.02;100974.27;107601;1253;109138;-68
2023/04/07 02:35:16;;;;;;;14.50;10.30;;;;;;;1.50;89.21;100972.15;107567;1254;107086;-70
2023/04/07 02:37:46;;;;;;;11.50;9.40;;;;;;;1.54;89.30;100977.64;107574;1254;97964;-69
2023/04/07 02:40:14;;;;;;;14.40;9.60;;;;;;;1.58;89.82;100981.17;107603;1253;97813;-68
2023/04/07 02:42:43;;;;;;;11.90;9.50;;;;;;;1.63;89.94;100987.45;107608;1253;111397;-68
2023/04/07 02:45:11;;;;;;;12.50;8.50;;;;;;;1.65;89.61;100985.27;107674;1255;109751;-70
2023/04/07 02:47:40;;;;;;;11.30;8.10;;;;;;;1.66;89.16;100989.41;107558;1251;108747;-67
2023/04/07 02:50:09;;;;;;;12.90;8.60;;;;;;;1.65;88.76;100987.71;107574;1251;97846;-68
2023/04/07 02:52:38;;;;;;;12.60;9.00;;;;;;;1.63;88.45;100988.70;107547;1251;98333;-68
2023/04/07 02:55:11;;;;;;;13.20;9.70;;;;;;;1.66;89.18;100994.20;107561;1250;111878;-68
2023/04/07 02:57:39;;;;;;;12.30;9.60;;;;;;;1.67;88.97;100995.94;107745;1250;108491;-69
2023/04/07 03:00:28;;;;;;;10.80;9.30;;;;;;;1.72;89.28;100998.50;107618;1251;107022;-70
2023/04/07 03:03:17;;;;;;;10.70;8.50;;;;;;;1.76;89.42;101000.61;107481;1253;97919;-68
2023/04/07 03:06:05;;;;;;;10.30;8.60;;;;;;;1.81;89.46;100999.66;107592;1250;98976;-68
2023/04/07 03:08:35;;;;;;;14.80;10.60;;;;;;;1.86;89.36;100997.50;107722;1250;112329;-68
2023/04/07 03:11:05;;;;;;;14.90;9.30;;;;;;;1.88;88.90;100998.29;107576;1251;109741;-68
2023/04/07 03:13:34;;;;;;;12.40;9.80;;;;;;;1.87;88.87;101002.04;107619;1251;107015;-67
2023/04/07 03:16:04;;;;;;;13.50;9.70;;;;;;;1.88;88.87;101006.41;107584;1250;97804;-68
2023/04/07 03:18:36;;;;;;;12.60;9.20;;;;;;;1.89;88.86;101007.80;107670;1254;97950;-70
2023/04/07 03:21:05;;;;;;;11.90;8.70;;;;;;;1.88;88.75;101005.37;107743;1250;111654;-69
2023/04/07 03:23:33;;;;;;;11.80;9.30;;;;;;;1.87;88.69;101009.11;107550;1251;109565;-69
2023/04/07 03:26:01;;;;;;;14.00;10.20;;;;;;;1.88;88.60;101009.78;107687;1250;107979;-69
2023/04/07 03:28:33;;;;;;;13.30;9.70;;;;;;;1.86;88.40;101011.46;107618;1251;97815;-66
2023/04/07 03:31:02;;;;;;;15.20;10.60;;;;;;;1.87;88.53;101011.21;107612;1251;97788;-68
2023/04/07 03:33:31;;;;;;;13.90;10.00;;;;;;;1.90;88.73;101012.02;107759;1255;111957;-70
2023/04/07 03:35:59;;;;;;;13.10;10.10;;;;;;;1.88;88.34;101013.86;107691;1256;109729;-67
2023/04/07 03:38:28;;;;;;;15.30;10.20;;;;;;;1.79;87.26;101015.33;107670;1256;106002;-69
2023/04/07 03:40:59;;;;;;;13.20;10.00;;;;;;;1.67;86.86;101019.61;107728;1251;97989;-67
2023/04/07 03:43:28;;;;;;;14.60;11.20;;;;;;;1.61;87.11;101022.57;107579;1253;97685;-67
2023/04/07 03:45:57;;;;;;;12.30;9.60;;;;;;;1.58;86.89;101026.60;107613;1253;114167;-67
2023/04/07 03:48:26;;;;;;;15.10;11.30;;;;;;;1.55;87.17;101033.96;107725;1251;109032;-68
2023/04/07 03:51:22;;;;;;;16.40;12.20;;;;;;;1.54;87.47;101039.34;107519;1251;108235;-68
2023/04/07 03:53:53;;;;;;;16.80;12.50;;;;;;;1.52;87.25;101042.04;107589;1254;97821;-68
2023/04/07 03:56:32;;;;;;;21.70;15.20;;;;;;;1.46;87.04;101048.68;107561;1256;97803;-67
2023/04/07 03:59:00;;;;;;;14.80;11.50;;;;;;;1.41;87.15;101050.34;107552;1251;111710;-66
2023/04/07 04:01:32;;;;;;;18.00;12.60;;;;;;;1.37;87.26;101057.58;107694;1255;109571;-68
2023/04/07 04:04:07;;;;;;;17.70;12.00;;;;;;;1.34;87.03;101061.98;107654;1251;107746;-67
2023/04/07 04:06:36;;;;;;;17.40;12.70;;;;;;;1.29;86.91;101065.19;107669;1251;98037;-68
2023/04/07 04:09:16;;;;;;;19.80;13.60;;;;;;;1.27;86.98;101068.48;107691;1256;97993;-68
2023/04/07 04:11:46;;;;;;;19.80;14.80;;;;;;;1.26;87.22;101073.28;107686;1251;112258;-69
2023/04/07 04:14:15;;;;;;;32.20;19.80;;;;;;;1.25;87.18;101075.11;107902;1252;110906;-68
2023/04/07 04:16:49;;;;;;;33.80;19.70;;;;;;;1.23;87.50;101080.13;107619;1251;106894;-69
2023/04/07 04:19:40;;;;;;;27.70;17.20;;;;;;;1.23;87.38;101079.23;107802;1250;97896;-68
2023/04/07 04:22:15;;;;;;;25.60;16.50;;;;;;;1.24;87.39;101085.37;107566;1251;98351;-68
2023/04/07 04:24:49;;;;;;;29.90;18.60;;;;;;;1.26;87.61;101089.88;107601;1251;111678;-68
2023/04/07 04:27:17;;;;;;;24.40;15.90;;;;;;;1.30;87.56;101091.47;107721;1251;109283;-68
2023/04/07 04:29:50;;;;;;;24.60;17.80;;;;;;;1.34;87.78;101094.34;107688;1251;108400;-69
2023/04/07 04:32:20;;;;;;;27.30;15.60;;;;;;;1.37;88.25;101092.56;107658;1251;97712;-68
2023/04/07 04:34:48;;;;;;;26.70;16.60;;;;;;;1.42;88.38;101092.38;107689;1250;97681;-68
2023/04/07 04:37:18;;;;;;;22.50;14.80;;;;;;;1.51;88.95;101093.56;107653;1251;111848;-70
2023/04/07 04:39:47;;;;;;;21.20;15.10;;;;;;;1.62;89.31;101092.52;107615;1250;107686;-70
2023/04/07 04:42:17;;;;;;;18.30;13.50;;;;;;;1.74;89.55;101093.40;107679;1251;107717;-69
2023/04/07 04:44:47;;;;;;;16.90;12.70;;;;;;;1.85;89.78;101094.65;107535;1251;97814;-68
2023/04/07 04:47:19;;;;;;;23.90;14.60;;;;;;;1.92;89.61;101094.35;107721;1256;98344;-68
2023/04/07 04:49:57;;;;;;;26.90;15.10;;;;;;;2.01;89.75;101096.56;107679;1251;111899;-68
2023/04/07 04:52:27;;;;;;;23.30;14.60;;;;;;;2.10;90.17;101098.23;107708;1256;109993;-69
2023/04/07 04:54:56;;;;;;;20.70;13.70;;;;;;;2.20;90.15;101103.63;107668;1251;108125;-68
2023/04/07 04:57:28;;;;;;;20.10;13.60;;;;;;;2.23;89.25;101102.74;107590;1251;97807;-70
2023/04/07 05:00:03;;;;;;;20.60;14.20;;;;;;;2.24;88.75;101102.38;107724;1255;97934;-69
2023/04/07 05:02:40;;;;;;;28.30;14.20;;;;;;;2.33;89.09;101113.61;107727;1255;111274;-69
2023/04/07 05:05:10;;;;;;;23.10;13.80;;;;;;;2.42;89.41;101118.14;107671;1251;110314;-70
2023/04/07 05:07:39;;;;;;;24.10;15.90;;;;;;;2.51;89.28;101125.31;107653;1251;107119;-69
2023/04/07 05:10:11;;;;;;;22.50;14.10;;;;;;;2.61;89.35;101127.09;107686;1249;97856;-70
2023/04/07 05:12:45;;;;;;;27.50;16.50;;;;;;;2.74;89.63;101130.75;107649;1251;97895;-71
2023/04/07 05:15:14;;;;;;;33.60;17.80;;;;;;;2.84;89.29;101131.11;107832;1251;110264;-68
2023/04/07 05:17:43;;;;;;;26.70;17.40;;;;;;;2.90;89.09;101134.89;107570;1251;110773;-68
2023/04/07 05:20:25;;;;;;;28.40;18.60;;;;;;;2.95;88.76;101134.44;107609;1251;108527;-71
2023/04/07 05:23:06;;;;;;;28.20;19.10;;;;;;;2.99;87.93;101137.64;107572;1251;97839;-68
2023/04/07 05:25:35;;;;;;;26.00;18.00;;;;;;;3.00;87.86;101144.70;107586;1252;97716;-69
2023/04/07 05:28:05;;;;;;;24.50;16.10;;;;;;;3.06;87.96;101144.73;107616;1251;111363;-71
2023/04/07 05:30:34;;;;;;;27.50;17.90;;;;;;;3.15;87.80;101141.44;107692;1256;110944;-72
2023/04/07 05:33:02;;;;;;;31.90;18.50;;;;;;;3.29;88.36;101139.10;107547;1254;109092;-70
2023/04/07 05:35:45;;;;;;;30.80;18.10;;;;;;;3.45;88.53;101131.71;107642;1256;97801;-69
2023/04/07 05:38:23;;;;;;;23.10;14.70;;;;;;;3.52;87.59;101130.98;107725;1250;97733;-69
2023/04/07 05:40:52;;;;;;;23.30;15.50;;;;;;;3.58;87.37;101134.56;107577;1251;112110;-69
2023/04/07 05:43:25;;;;;;;21.60;14.00;;;;;;;3.68;87.36;101136.19;107588;1251;109743;-68
2023/04/07 05:45:55;;;;;;;23.20;13.70;;;;;;;3.72;86.89;101142.17;107561;1251;107499;-68
2023/04/07 05:48:25;;;;;;;19.40;13.80;;;;;;;3.68;86.16;101145.56;107778;1251;97904;-71
2023/04/07 05:50:55;;;;;;;20.90;14.80;;;;;;;3.62;85.64;101151.91;107678;1251;97945;-70
2023/04/07 05:53:25;;;;;;;23.40;14.60;;;;;;;3.64;85.89;101149.34;107551;1251;111745;-70
2023/04/07 05:55:55;;;;;;;20.90;14.80;;;;;;;3.66;85.70;101148.38;107663;1251;110023;-70
2023/04/07 05:58:34;;;;;;;21.60;14.70;;;;;;;3.63;84.85;101152.39;107562;1253;107672;-69
2023/04/07 06:01:03;;;;;;;23.30;16.60;;;;;;;3.68;85.01;101155.67;107719;1251;97815;-69
2023/04/07 06:03:34;;;;;;;24.60;17.00;;;;;;;3.74;84.89;101159.94;107670;1256;98846;-67
2023/04/07 06:06:27;;;;;;;28.40;17.70;;;;;;;3.87;85.19;101165.67;107660;1251;111765;-69
2023/04/07 06:08:56;;;;;;;24.60;15.80;;;;;;;3.96;84.93;101164.29;107756;1251;109261;-68
2023/04/07 06:11:26;;;;;;;20.20;14.70;;;;;;;4.02;83.95;101167.32;107584;1251;107803;-69
2023/04/07 06:13:54;;;;;;;20.40;15.10;;;;;;;4.04;83.82;101165.61;107828;1250;97823;-69
2023/04/07 06:16:24;;;;;;;18.30;14.30;;;;;;;4.11;84.33;101168.11;107739;1253;97861;-69
2023/04/07 06:18:52;;;;;;;19.10;13.60;;;;;;;4.28;85.34;101165.58;107740;1250;111761;-70
2023/04/07 06:21:21;;;;;;;17.60;12.50;;;;;;;4.43;85.46;101170.06;107652;1250;109672;-69
2023/04/07 06:23:49;;;;;;;14.80;9.70;;;;;;;4.55;85.22;101172.61;107728;1251;108566;-71
2023/04/07 06:26:18;;;;;;;11.40;9.30;;;;;;;4.64;84.98;101174.54;107557;1251;97803;-68
2023/04/07 06:28:46;;;;;;;14.90;9.20;;;;;;;4.66;84.60;101174.26;107652;1253;97888;-67
2023/04/07 06:31:15;;;;;;;11.60;8.40;;;;;;;4.67;84.36;101174.40;107626;1251;111301;-69
2023/04/07 06:33:44;;;;;;;10.60;8.50;;;;;;;4.67;83.35;101185.07;107668;1255;109022;-68
2023/04/07 06:36:13;;;;;;;10.30;7.80;;;;;;;4.52;81.90;101183.97;107679;1251;108672;-68
2023/04/07 06:38:42;;;;;;;11.60;7.30;;;;;;;4.37;81.95;101179.63;107565;1251;97805;-69
2023/04/07 06:41:15;;;;;;;10.50;8.90;;;;;;;4.33;82.77;101186.75;107706;1251;97821;-71
2023/04/07 06:43:46;;;;;;;11.80;9.30;;;;;;;4.31;82.94;101185.83;107603;1251;111874;-69
2023/04/07 06:46:15;;;;;;;15.40;10.30;;;;;;;4.31;83.39;101188.13;107594;1251;108944;-68
2023/04/07 06:48:45;;;;;;;13.50;9.70;;;;;;;4.33;83.41;101188.35;107653;1251;108317;-69
2023/04/07 06:51:14;;;;;;;17.40;11.80;;;;;;;4.34;83.25;101187.23;107692;1251;97832;-69
2023/04/07 06:53:43;;;;;;;13.20;10.10;;;;;;;4.34;83.00;101190.09;107586;1251;98520;-68
2023/04/07 06:56:11;;;;;;;15.90;11.80;;;;;;;4.36;83.04;101191.56;107588;1251;111948;-68
2023/04/07 06:58:39;;;;;;;16.90;11.40;;;;;;;4.41;82.95;101201.09;107675;1251;109932;-68
2023/04/07 07:01:08;;;;;;;17.90;12.20;;;;;;;4.44;82.87;101206.95;107703;1251;108086;-68
2023/04/07 07:03:37;;;;;;;19.00;12.50;;;;;;;4.49;82.75;101212.55;107751;1251;97781;-67
2023/04/07 07:06:06;;;;;;;20.60;14.20;;;;;;;4.52;82.52;101208.25;107580;1253;98372;-68
2023/04/07 07:08:34;;;;;;;29.30;16.20;;;;;;;4.56;82.13;101214.46;107773;1256;111792;-67
2023/04/07 07:11:02;;;;;;;34.30;18.90;;;;;;;4.60;82.28;101217.77;107677;1251;110176;-67
2023/04/07 07:13:31;;;;;;;36.30;17.60;;;;;;;4.66;82.01;101215.64;107791;1253;107564;-67
2023/04/07 07:16:00;;;;;;;30.30;17.30;;;;;;;4.77;82.01;101219.64;107832;1250;97887;-68
2023/04/07 07:18:28;;;;;;;31.40;16.70;;;;;;;4.96;82.28;101220.88;107666;1251;97824;-67
2023/04/07 07:20:59;;;;;;;34.30;17.00;;;;;;;5.15;82.01;101221.95;107819;1251;111749;-69
2023/04/07 07:23:27;;;;;;;31.00;18.60;;;;;;;5.27;81.50;101222.82;107567;1253;110133;-68
2023/04/07 07:25:56;;;;;;;27.60;16.10;;;;;;;5.42;81.66;101225.17;107447;1251;107571;-68
2023/04/07 07:28:25;;;;;;;25.30;17.40;;;;;;;5.56;81.16;101230.17;107635;1251;97804;-67
2023/04/07 07:30:53;;;;;;;26.10;18.00;;;;;;;5.62;80.80;101233.59;107591;1251;97812;-68
2023/04/07 07:33:22;;;;;;;29.60;17.90;;;;;;;5.66;80.72;101235.15;107615;1251;113438;-68
2023/04/07 07:35:50;;;;;;;28.80;18.50;;;;;;;5.65;80.08;101237.64;107625;1251;109753;-68
2023/04/07 07:38:19;;;;;;;28.20;18.50;;;;;;;5.63;79.48;101240.47;107628;1251;108205;-70
2023/04/07 07:40:47;;;;;;;28.10;17.70;;;;;;;5.63;79.38;101243.27;107622;1250;97825;-69
2023/04/07 07:43:16;;;;;;;24.10;16.60;;;;;;;5.66;79.22;101240.43;107651;1251;98400;-67
2023/04/07 07:45:45;;;;;;;26.30;17.30;;;;;;;5.76;78.72;101240.55;107666;1251;111255;-68
2023/04/07 07:48:14;;;;;;;20.70;15.20;;;;;;;5.88;78.93;101244.67;107656;1253;108169;-68
2023/04/07 07:50:43;;;;;;;18.50;13.80;;;;;;;5.99;78.48;101244.86;107712;1250;108173;-67
2023/04/07 07:53:12;;;;;;;12.30;10.40;;;;;;;6.12;78.37;101246.22;107634;1251;97812;-70
2023/04/07 07:55:42;;;;;;;12.30;8.90;;;;;;;6.15;77.36;101255.64;107628;1250;97726;-68
2023/04/07 07:58:10;;;;;;;12.70;9.10;;;;;;;6.20;77.17;101259.48;107705;1250;111268;-70
2023/04/07 08:00:39;;;;;;;11.50;8.80;;;;;;;6.27;76.91;101259.58;107166;1250;690681;-68
2023/04/07 08:03:08;;;;;;;11.50;8.30;;;;;;;6.25;76.41;101262.15;107639;1251;108626;-69
2023/04/07 08:05:36;;;;;;;12.90;9.60;;;;;;;6.23;76.41;101267.80;107756;1250;97759;-74
2023/04/07 08:08:07;;;;;;;13.80;8.80;;;;;;;6.32;76.93;101267.59;107661;1251;97838;-68
2023/04/07 08:10:35;;;;;;;16.50;11.90;;;;;;;6.46;76.64;101267.27;107672;1251;111709;-69
2023/04/07 08:13:04;;;;;;;14.80;9.20;;;;;;;6.59;76.81;101270.18;107697;1251;109690;-70
2023/04/07 08:15:33;;;;;;;14.80;10.50;;;;;;;6.61;75.71;101269.38;107748;1250;109337;-68
2023/04/07 08:18:03;;;;;;;12.90;9.50;;;;;;;6.61;75.55;101271.71;107668;1250;97707;-68
2023/04/07 08:20:32;;;;;;;12.80;9.30;;;;;;;6.54;75.07;101271.04;107706;1251;97930;-69
2023/04/07 08:23:01;;;;;;;12.40;9.20;;;;;;;6.45;74.72;101270.73;107616;1251;111323;-69
2023/04/07 08:25:29;;;;;;;12.70;8.90;;;;;;;6.35;74.23;101272.59;107754;1251;109663;-68
2023/04/07 08:27:58;;;;;;;14.10;9.20;;;;;;;6.20;73.70;101276.41;107675;1251;107684;-68
2023/04/07 08:30:26;;;;;;;12.40;8.90;;;;;;;6.16;74.59;101278.94;107676;1250;97809;-68
2023/04/07 08:32:55;;;;;;;12.60;8.90;;;;;;;6.26;75.11;101276.90;107640;1250;97846;-67
2023/04/07 08:35:24;;;;;;;9.00;7.10;;;;;;;6.38;74.98;101273.31;107674;1251;112130;-68
2023/04/07 08:37:52;;;;;;;8.10;6.90;;;;;;;6.47;72.04;101273.66;107645;1250;110154;-69
2023/04/07 08:40:20;;;;;;;10.20;6.90;;;;;;;6.40;72.95;101274.03;107633;1250;108492;-69
2023/04/07 08:42:50;;;;;;;7.90;6.30;;;;;;;6.54;74.12;101272.31;107701;1251;97830;-69
2023/04/07 08:45:21;;;;;;;9.00;6.20;;;;;;;6.70;74.50;101271.81;107667;1256;97721;-69
2023/04/07 08:47:55;;;;;;;9.40;6.30;;;;;;;6.94;74.35;101268.34;107715;1250;112126;-69
2023/04/07 08:50:26;;;;;;;7.10;5.70;;;;;;;7.13;72.59;101271.17;107631;1251;110015;-68
2023/04/07 08:52:57;;;;;;;7.80;6.10;;;;;;;7.36;72.27;101273.61;107668;1250;107584;-68
2023/04/07 08:55:26;;;;;;;7.20;6.10;;;;;;;7.56;71.93;101271.70;107672;1251;97829;-67
2023/04/07 08:57:56;;;;;;;7.80;5.80;;;;;;;7.77;71.72;101270.48;107636;1250;98466;-68
2023/04/07 09:00:27;;;;;;;8.90;6.70;;;;;;;7.98;71.57;101271.92;107700;1251;111290;-67
2023/04/07 09:02:56;;;;;;;7.10;5.40;;;;;;;8.15;71.38;101271.75;107679;1253;109854;-70
2023/04/07 09:05:25;;;;;;;8.70;6.10;;;;;;;8.23;70.93;101272.80;107607;1251;108052;-68
2023/04/07 09:07:53;;;;;;;10.30;6.60;;;;;;;8.26;71.05;101275.99;107632;1251;97816;-70
2023/04/07 09:10:22;;;;;;;8.20;5.20;;;;;;;8.37;71.14;101282.04;107611;1251;98351;-69
2023/04/07 09:12:53;;;;;;;13.00;5.30;;;;;;;8.25;68.85;101283.62;107527;1251;111665;-69
2023/04/07 09:15:22;;;;;;;7.50;5.40;;;;;;;8.10;69.08;101287.84;107566;1251;108089;-72
2023/04/07 09:17:51;;;;;;;6.90;5.60;;;;;;;8.15;69.07;101288.23;107595;1248;107224;-67
2023/04/07 09:20:20;;;;;;;18.10;9.80;;;;;;;8.15;68.95;101288.79;107674;1250;97778;-69
2023/04/07 09:22:49;;;;;;;16.20;8.30;;;;;;;8.11;69.25;101293.88;107744;1250;97868;-68
2023/04/07 09:25:25;;;;;;;15.40;10.40;;;;;;;8.08;69.14;101296.23;107731;1251;111806;-73
2023/04/07 09:27:53;;;;;;;8.60;7.20;;;;;;;8.06;68.77;101298.83;107546;1251;109494;-71
2023/04/07 09:30:22;;;;;;;12.20;8.80;;;;;;;8.02;69.19;101297.67;107561;1250;107956;-70
2023/04/07 09:32:51;;;;;;;9.20;7.90;;;;;;;8.06;69.51;101297.04;107626;1249;97800;-70
2023/04/07 09:35:21;;;;;;;12.90;8.70;;;;;;;8.06;69.36;101297.59;107711;1251;98486;-70
2023/04/07 09:38:00;;;;;;;11.00;8.50;;;;;;;8.09;69.10;101298.09;107650;1251;112087;-71
2023/04/07 09:40:29;;;;;;;11.70;9.00;;;;;;;8.06;68.46;101301.35;107775;1251;110020;-71
2023/04/07 09:42:58;;;;;;;12.90;10.20;;;;;;;7.99;68.31;101301.09;107645;1251;108130;-69
2023/04/07 09:45:28;;;;;;;15.30;11.50;;;;;;;7.85;66.78;101301.14;107671;1249;98017;-70
2023/04/07 09:48:05;;;;;;;22.20;13.40;;;;;;;7.70;66.76;101301.45;107622;1250;97733;-70
2023/04/07 09:50:40;;;;;;;20.70;11.90;;;;;;;7.68;67.05;101300.52;107638;1250;111336;-71
2023/04/07 09:53:09;;;;;;;13.80;10.80;;;;;;;7.71;67.57;101300.51;107645;1251;109109;-73
2023/04/07 09:55:40;;;;;;;16.20;11.10;;;;;;;7.83;68.12;101298.65;107668;1251;108143;-72
2023/04/07 09:58:15;;;;;;;17.20;12.20;;;;;;;8.10;67.69;101296.43;107654;1251;97931;-70
2023/04/07 10:00:45;;;;;;;16.60;12.30;;;;;;;8.31;67.63;101300.68;107687;1251;97758;-70
2023/04/07 10:03:14;;;;;;;17.70;12.40;;;;;;;8.74;67.92;101301.39;107736;1251;112446;-70
2023/04/07 10:05:44;;;;;;;24.50;13.90;;;;;;;9.24;67.71;101301.73;107668;1250;109210;-70
2023/04/07 10:08:21;;;;;;;17.50;12.30;;;;;;;9.89;66.46;101300.17;107598;1249;107647;-70
2023/04/07 10:10:54;;;;;;;18.60;12.60;;;;;;;10.22;64.18;101303.80;107617;1250;97716;-72
2023/04/07 10:13:24;;;;;;;20.00;11.40;;;;;;;10.35;63.59;101304.58;107830;1248;97873;-69
2023/04/07 10:16:01;;;;;;;22.40;11.70;;;;;;;10.61;62.83;101304.67;107724;1250;110680;-72
2023/04/07 10:18:32;;;;;;;24.10;11.70;;;;;;;11.11;61.23;101305.65;107739;1249;109854;-70
2023/04/07 10:21:04;;;;;;;23.00;13.00;;;;;;;11.42;61.14;101305.95;107730;1250;107564;-70
2023/04/07 10:23:47;;;;;;;22.70;12.10;;;;;;;12.17;60.94;101300.72;107714;1251;97739;-71
2023/04/07 10:26:22;;;;;;;21.90;12.50;;;;;;;12.78;59.43;101306.75;107708;1250;97792;-70
2023/04/07 10:28:58;;;;;;;20.70;12.40;;;;;;;13.26;58.54;101306.23;107666;1251;111272;-70
2023/04/07 10:31:26;;;;;;;21.80;11.90;;;;;;;13.63;58.51;101307.70;107667;1254;109510;-69
2023/04/07 10:33:56;;;;;;;24.00;12.70;;;;;;;13.90;56.76;101307.91;107760;1250;107639;-73
2023/04/07 10:36:25;;;;;;;22.90;12.50;;;;;;;13.90;54.54;101314.20;107628;1249;97849;-70
2023/04/07 10:39:06;;;;;;;24.40;12.40;;;;;;;13.76;54.80;101317.30;107731;1250;97773;-70
2023/04/07 10:41:36;;;;;;;20.70;11.70;;;;;;;13.47;53.91;101311.55;107647;1250;112035;-70
2023/04/07 10:44:07;;;;;;;18.60;12.10;;;;;;;13.30;54.47;101311.61;107755;1250;109603;-69
2023/04/07 10:46:47;;;;;;;22.40;12.90;;;;;;;13.42;54.53;101307.79;107675;1249;107076;-70
2023/04/07 10:49:16;;;;;;;20.20;12.90;;;;;;;13.61;52.10;101307.03;107655;1250;97831;-71
2023/04/07 10:52:14;;;;;;;23.60;13.00;;;;;;;13.37;51.61;101307.53;107722;1250;97839;-73
2023/04/07 10:54:42;;;;;;;22.00;12.50;;;;;;;13.08;52.10;101302.25;107630;1253;111403;-71
2023/04/07 10:57:14;;;;;;;18.40;12.20;;;;;;;12.99;52.51;101302.15;107620;1251;109171;-72
2023/04/07 11:00:11;;;;;;;20.00;11.20;;;;;;;13.08;52.29;101293.55;107688;1250;107660;-71
2023/04/07 11:02:40;;;;;;;18.70;11.80;;;;;;;13.52;52.05;101297.73;107629;1250;97811;-70
2023/04/07 11:05:19;;;;;;;20.70;12.50;;;;;;;13.73;51.72;101298.15;107795;1250;98452;-73
2023/04/07 11:07:50;;;;;;;23.50;13.40;;;;;;;13.98;52.16;101298.64;107782;1251;111191;-71
2023/04/07 11:10:20;;;;;;;17.80;11.50;;;;;;;14.53;52.30;101297.24;107668;1250;109078;-70
2023/04/07 11:13:04;;;;;;;21.60;12.20;;;;;;;15.61;51.79;101289.11;107726;1250;107663;-69
2023/04/07 11:15:36;;;;;;;;;;;;;;;16.52;50.27;101280.13;107658;1250;97908;-70
2023/04/07 11:18:15;;;;;;;18.00;11.90;;;;;;;17.36;49.80;101278.28;107654;1249;97717;-71
2023/04/07 11:20:46;;;;;;;21.40;12.30;;;;;;;18.07;48.42;101281.28;107645;1250;109891;-75
2023/04/07 11:23:17;;;;;;;17.60;12.30;;;;;;;18.65;45.79;101279.89;107766;1251;107967;-71
2023/04/07 11:25:48;;;;;;;19.20;12.60;;;;;;;18.58;42.91;101276.10;107656;1250;107186;-71